createdAt,value
2019-01-10T00:01:45.421Z,78.35
2019-01-10T00:04:12.837Z,78.15
2019-01-10T00:06:40.234Z,78.02
2019-01-10T00:09:07.645Z,78.10
2019-01-10T00:11:35.046Z,78.29
2019-01-10T00:14:02.455Z,78.34
2019-01-10T00:16:29.862Z,78.31
2019-01-10T00:18:57.343Z,78.23
2019-01-10T00:21:24.764Z,77.99
2019-01-10T00:23:52.239Z,77.78
2019-01-10T00:26:19.748Z,77.55
2019-01-10T00:28:47.747Z,77.40
2019-01-10T00:31:15.176Z,76.94
2019-01-10T00:33:46.140Z,76.83
2019-01-10T00:36:13.628Z,76.76
2019-01-10T00:38:41.142Z,76.76
2019-01-10T00:41:08.559Z,76.83
2019-01-10T00:43:35.950Z,76.67
2019-01-10T00:46:03.985Z,76.19
2019-01-10T00:48:31.414Z,75.89
2019-01-10T00:50:58.820Z,75.87
2019-01-10T00:53:26.196Z,75.81
2019-01-10T00:55:53.634Z,75.54
2019-01-10T00:58:21.005Z,75.63
2019-01-10T01:00:48.398Z,75.72
2019-01-10T01:03:16.076Z,75.21
2019-01-10T01:05:43.588Z,74.31
2019-01-10T01:08:11.281Z,73.99
2019-01-10T01:10:38.766Z,74.03
2019-01-10T01:13:06.152Z,74.19
2019-01-10T01:15:33.575Z,74.22
2019-01-10T01:18:00.969Z,73.77
2019-01-10T01:20:28.393Z,73.32
2019-01-10T01:22:55.816Z,73.30
2019-01-10T01:25:23.206Z,73.20
2019-01-10T01:27:50.705Z,72.80
2019-01-10T01:30:18.884Z,72.78
2019-01-10T01:32:46.287Z,72.65
2019-01-10T01:35:13.689Z,72.32
2019-01-10T01:37:41.077Z,72.28
2019-01-10T01:40:08.480Z,72.18
2019-01-10T01:42:35.885Z,72.31
2019-01-10T01:45:03.263Z,72.37
2019-01-10T01:47:30.666Z,72.30
2019-01-10T01:49:58.055Z,72.40
2019-01-10T01:52:25.450Z,72.09
2019-01-10T01:54:52.862Z,72.15
2019-01-10T01:57:20.269Z,71.90
2019-01-10T01:59:47.661Z,71.53
2019-01-10T02:02:15.073Z,71.85
2019-01-10T02:04:42.458Z,72.56
2019-01-10T02:07:09.858Z,72.41
2019-01-10T02:09:37.256Z,72.36
2019-01-10T02:12:04.645Z,72.53
2019-01-10T02:14:32.078Z,72.43
2019-01-10T02:16:59.499Z,72.75
2019-01-10T02:19:26.975Z,73.35
2019-01-10T02:21:54.388Z,73.12
2019-01-10T02:24:21.791Z,73.16
2019-01-10T02:26:49.200Z,72.70
2019-01-10T02:29:16.887Z,72.41
2019-01-10T02:31:44.282Z,72.01
2019-01-10T02:34:11.685Z,71.20
2019-01-10T02:36:39.094Z,71.16
2019-01-10T02:39:06.504Z,70.97
2019-01-10T02:41:34.015Z,71.21
2019-01-10T02:44:01.410Z,71.12
2019-01-10T02:46:28.799Z,71.43
2019-01-10T02:48:56.462Z,71.25
2019-01-10T02:51:23.912Z,71.12
2019-01-10T02:53:51.298Z,71.17
2019-01-10T02:56:18.716Z,70.99
2019-01-10T02:58:46.103Z,70.66
2019-01-10T03:01:13.567Z,70.74
2019-01-10T03:03:40.992Z,70.86
2019-01-10T03:06:08.400Z,70.56
2019-01-10T03:08:35.809Z,70.41
2019-01-10T03:11:03.214Z,70.53
2019-01-10T03:13:36.550Z,70.49
2019-01-10T03:15:58.032Z,70.60
2019-01-10T03:18:25.447Z,70.42
2019-01-10T03:20:52.854Z,70.54
2019-01-10T03:23:20.264Z,70.33
2019-01-10T03:25:47.649Z,70.40
2019-01-10T03:28:15.083Z,70.69
2019-01-10T03:30:42.490Z,70.92
2019-01-10T03:33:09.878Z,71.07
2019-01-10T03:35:37.281Z,70.78
2019-01-10T03:38:04.701Z,70.78
2019-01-10T03:40:32.164Z,71.06
2019-01-10T03:42:59.611Z,71.32
2019-01-10T03:45:27.002Z,71.38
2019-01-10T03:47:55.234Z,71.19
2019-01-10T03:50:22.656Z,70.89
2019-01-10T03:52:50.069Z,70.80
2019-01-10T03:55:17.462Z,70.73
2019-01-10T03:57:44.862Z,70.59
2019-01-10T04:00:20.729Z,70.56
2019-01-10T04:02:48.198Z,70.39
2019-01-10T04:05:15.745Z,70.43
2019-01-10T04:07:43.692Z,70.87
2019-01-10T04:10:11.145Z,70.77
2019-01-10T04:12:38.739Z,70.36
2019-01-10T04:15:06.208Z,69.69
2019-01-10T04:17:33.608Z,69.08
2019-01-10T04:20:01.030Z,69.15
2019-01-10T04:22:28.435Z,69.13
2019-01-10T04:24:55.836Z,68.58
2019-01-10T04:27:23.257Z,68.13
2019-01-10T04:29:50.679Z,67.86
2019-01-10T04:32:18.069Z,68.01
2019-01-10T04:34:45.477Z,67.73
2019-01-10T04:37:12.918Z,67.67
2019-01-10T04:39:40.322Z,67.32
2019-01-10T04:42:07.717Z,66.84
2019-01-10T04:44:35.268Z,66.84
2019-01-10T04:47:02.665Z,66.81
2019-01-10T04:49:30.074Z,66.75
2019-01-10T04:51:57.472Z,66.98
2019-01-10T04:54:24.881Z,67.49
2019-01-10T04:56:52.289Z,67.87
2019-01-10T04:59:19.715Z,67.74
2019-01-10T05:01:47.128Z,67.76
2019-01-10T05:04:14.541Z,67.56
2019-01-10T05:06:41.940Z,67.56
2019-01-10T05:09:09.341Z,67.43
2019-01-10T05:11:36.764Z,68.09
2019-01-10T05:14:04.165Z,68.17
2019-01-10T05:16:31.560Z,68.09
2019-01-10T05:18:59.063Z,67.90
2019-01-10T05:21:26.454Z,68.01
2019-01-10T05:23:54.169Z,68.27
2019-01-10T05:26:21.558Z,68.32
2019-01-10T05:28:49.808Z,68.12
2019-01-10T05:31:17.201Z,67.72
2019-01-10T05:33:44.604Z,66.78
2019-01-10T05:36:12.012Z,65.68
2019-01-10T05:38:39.441Z,66.08
2019-01-10T05:41:06.836Z,66.01
2019-01-10T05:43:34.802Z,66.48
2019-01-10T05:46:02.207Z,66.56
2019-01-10T05:48:29.611Z,67.23
2019-01-10T05:50:56.999Z,67.64
2019-01-10T05:53:24.659Z,68.20
2019-01-10T05:55:52.060Z,68.59
2019-01-10T05:58:19.561Z,69.24
2019-01-10T06:00:46.962Z,69.83
2019-01-10T06:03:14.351Z,70.20
2019-01-10T06:05:41.788Z,70.54
2019-01-10T06:08:09.238Z,70.81
2019-01-10T06:10:36.647Z,71.36
2019-01-10T06:13:04.075Z,71.72
2019-01-10T06:15:31.478Z,71.67
2019-01-10T06:17:59.364Z,71.82
2019-01-10T06:20:26.766Z,71.83
2019-01-10T06:22:54.179Z,71.58
2019-01-10T06:25:21.604Z,71.42
2019-01-10T06:27:49.351Z,71.42
2019-01-10T06:30:16.771Z,70.91
2019-01-10T06:32:44.385Z,70.47
2019-01-10T06:35:11.787Z,70.27
2019-01-10T06:37:39.175Z,69.77
2019-01-10T06:40:06.672Z,68.78
2019-01-10T06:42:34.121Z,68.50
2019-01-10T06:45:01.516Z,68.53
2019-01-10T06:47:29.643Z,68.56
2019-01-10T06:49:57.223Z,68.34
2019-01-10T06:52:24.699Z,68.26
2019-01-10T06:54:56.633Z,67.73
2019-01-10T06:57:20.020Z,67.72
2019-01-10T06:59:47.478Z,67.12
2019-01-10T07:02:14.910Z,67.00
2019-01-10T07:04:42.556Z,66.75
2019-01-10T07:07:10.869Z,66.81
2019-01-10T07:09:38.287Z,65.64
2019-01-10T07:12:07.657Z,65.88
2019-01-10T07:14:33.115Z,65.81
2019-01-10T07:17:00.585Z,65.87
2019-01-10T07:19:28.065Z,66.50
2019-01-10T07:21:56.453Z,66.39
2019-01-10T07:24:23.835Z,65.82
2019-01-10T07:26:51.261Z,64.84
2019-01-10T07:29:18.670Z,64.68
2019-01-10T07:31:46.076Z,64.37
2019-01-10T07:34:13.533Z,64.62
2019-01-10T07:36:40.929Z,65.10
2019-01-10T07:39:08.451Z,65.59
2019-01-10T07:41:36.718Z,65.96
2019-01-10T07:44:04.176Z,66.04
2019-01-10T07:46:31.610Z,66.28
2019-01-10T07:48:59.020Z,66.46
2019-01-10T07:51:26.422Z,66.55
2019-01-10T07:53:53.877Z,66.96
2019-01-10T07:56:21.279Z,66.87
2019-01-10T07:58:49.013Z,66.81
2019-01-10T08:01:16.397Z,66.97
2019-01-10T08:03:43.927Z,66.83
2019-01-10T08:06:11.363Z,66.50
2019-01-10T08:08:38.786Z,66.60
2019-01-10T08:11:06.304Z,66.51
2019-01-10T08:13:33.835Z,66.19
2019-01-10T08:16:01.247Z,64.84
2019-01-10T08:18:28.751Z,63.82
2019-01-10T08:20:56.183Z,63.16
2019-01-10T08:23:23.827Z,63.45
2019-01-10T08:25:51.224Z,63.19
2019-01-10T08:28:18.650Z,63.18
2019-01-10T08:30:46.100Z,62.76
2019-01-10T08:33:13.872Z,60.35
2019-01-10T08:35:41.924Z,57.61
2019-01-10T08:38:09.425Z,56.23
2019-01-10T08:40:36.913Z,55.16
2019-01-10T08:43:04.344Z,54.22
2019-01-10T08:45:32.038Z,55.49
2019-01-10T08:48:00.057Z,56.69
2019-01-10T08:50:28.212Z,55.58
2019-01-10T08:52:55.668Z,54.59
2019-01-10T08:55:24.331Z,53.23
2019-01-10T08:57:52.684Z,52.28
2019-01-10T09:00:20.202Z,52.37
2019-01-10T09:02:47.616Z,52.25
2019-01-10T09:05:15.047Z,50.43
2019-01-10T09:07:43.348Z,49.08
2019-01-10T09:10:14.262Z,47.53
2019-01-10T09:12:42.105Z,47.29
2019-01-10T09:15:09.574Z,46.37
2019-01-10T09:17:37.070Z,45.47
2019-01-10T09:20:05.372Z,44.91
2019-01-10T09:22:32.882Z,45.64
2019-01-10T09:25:00.288Z,44.94
2019-01-10T09:27:27.744Z,44.28
2019-01-10T09:29:55.163Z,44.69
2019-01-10T09:32:22.574Z,44.74
2019-01-10T09:34:49.983Z,47.63
2019-01-10T09:37:17.387Z,50.44
2019-01-10T09:39:44.873Z,51.09
2019-01-10T09:42:12.385Z,46.80
2019-01-10T09:44:39.880Z,44.04
2019-01-10T09:47:07.312Z,45.34
2019-01-10T09:49:35.537Z,47.42
2019-01-10T09:52:03.322Z,49.27
2019-01-10T09:54:31.441Z,49.95
2019-01-10T09:56:58.913Z,50.64
2019-01-10T09:59:26.425Z,49.72
2019-01-10T10:01:53.836Z,51.01
2019-01-10T10:04:21.226Z,52.38
2019-01-10T10:06:48.622Z,53.62
2019-01-10T10:09:17.003Z,54.14
2019-01-10T10:11:44.387Z,53.95
2019-01-10T10:14:11.827Z,52.47
2019-01-10T10:16:39.362Z,52.17
2019-01-10T10:19:06.881Z,49.10
2019-01-10T10:21:34.306Z,48.54
2019-01-10T10:24:01.709Z,50.65
2019-01-10T10:26:29.114Z,50.26
2019-01-10T10:28:56.597Z,51.37
2019-01-10T10:31:23.992Z,51.78
2019-01-10T10:33:51.419Z,52.26
2019-01-10T10:36:18.915Z,52.33
2019-01-10T10:38:46.450Z,51.27
2019-01-10T10:41:13.930Z,50.28
2019-01-10T10:43:42.003Z,47.95
2019-01-10T10:46:09.448Z,47.52
2019-01-10T10:48:36.843Z,48.20
2019-01-10T10:51:04.446Z,50.11
2019-01-10T10:53:31.867Z,49.72
2019-01-10T10:55:59.349Z,50.15
2019-01-10T10:58:26.774Z,50.17
2019-01-10T11:00:57.036Z,49.43
2019-01-10T11:03:24.458Z,48.21
2019-01-10T11:05:51.958Z,47.22
2019-01-10T11:08:19.408Z,46.60
2019-01-10T11:10:46.824Z,47.58
2019-01-10T11:13:14.255Z,47.90
2019-01-10T11:15:42.851Z,48.37
2019-01-10T11:18:09.544Z,48.87
2019-01-10T11:20:37.027Z,49.54
2019-01-10T11:23:10.558Z,49.93
2019-01-10T11:25:32.036Z,48.97
2019-01-10T11:27:59.511Z,46.06
2019-01-10T11:30:27.035Z,42.20
2019-01-10T11:32:54.043Z,39.49
2019-01-10T11:35:21.030Z,37.90
2019-01-10T11:37:48.697Z,35.89
2019-01-10T11:40:18.155Z,36.68
2019-01-10T11:42:46.565Z,37.20
2019-01-10T11:45:13.993Z,39.27
2019-01-10T11:47:41.425Z,41.12
2019-01-10T11:50:08.843Z,41.42
2019-01-10T11:52:36.673Z,41.31
2019-01-10T11:55:04.145Z,40.45
2019-01-10T11:57:31.647Z,40.32
2019-01-10T11:59:59.057Z,39.89
2019-01-10T12:02:26.518Z,38.52
2019-01-10T12:04:53.958Z,38.44
2019-01-10T12:07:21.382Z,37.95
2019-01-10T12:09:48.996Z,37.09
2019-01-10T12:12:16.450Z,38.15
2019-01-10T12:14:44.007Z,40.19
2019-01-10T12:17:12.418Z,41.82
2019-01-10T12:19:39.986Z,43.03
2019-01-10T12:22:07.459Z,43.83
2019-01-10T12:24:34.915Z,42.88
2019-01-10T12:27:03.183Z,42.56
2019-01-10T12:29:36.077Z,40.32
2019-01-10T12:31:57.258Z,37.54
2019-01-10T12:34:24.222Z,35.33
2019-01-10T12:36:59.996Z,34.04
2019-01-10T12:39:18.210Z,33.30
2019-01-10T12:41:45.254Z,32.31
2019-01-10T12:44:12.225Z,32.59
2019-01-10T12:46:39.179Z,32.38
2019-01-10T12:49:06.328Z,30.76
2019-01-10T12:51:34.006Z,30.33
2019-01-10T12:54:01.434Z,30.41
2019-01-10T12:56:28.391Z,30.30
2019-01-10T12:58:55.402Z,30.46
2019-01-10T13:01:22.344Z,30.49
2019-01-10T13:03:49.360Z,31.62
2019-01-10T13:06:16.369Z,31.58
2019-01-10T13:08:43.905Z,30.28
2019-01-10T13:11:10.904Z,30.01
2019-01-10T13:13:37.891Z,29.52
2019-01-10T13:16:04.836Z,29.29
2019-01-10T13:18:31.796Z,29.16
2019-01-10T13:20:59.369Z,28.58
2019-01-10T13:23:26.739Z,27.91
2019-01-10T13:25:59.603Z,27.38
2019-01-10T13:28:21.567Z,27.00
2019-01-10T13:30:49.667Z,26.81
2019-01-10T13:33:17.746Z,27.05
2019-01-10T13:35:46.052Z,26.76
2019-01-10T13:38:13.604Z,27.64
2019-01-10T13:40:41.035Z,29.30
2019-01-10T13:43:08.440Z,33.43
2019-01-10T13:45:35.865Z,38.15
2019-01-10T13:48:03.255Z,41.21
2019-01-10T13:50:30.889Z,42.80
2019-01-10T13:52:58.271Z,44.17
2019-01-10T13:55:25.759Z,44.66
2019-01-10T13:57:53.169Z,45.30
2019-01-10T14:00:20.797Z,45.86
2019-01-10T14:02:47.981Z,46.28
2019-01-10T14:05:15.429Z,46.66
2019-01-10T14:07:43.449Z,46.96
2019-01-10T14:10:10.395Z,46.83
2019-01-10T14:12:37.382Z,46.38
2019-01-10T14:15:04.322Z,46.78
2019-01-10T14:17:31.285Z,46.98
2019-01-10T14:19:58.213Z,47.21
2019-01-10T14:22:26.519Z,46.06
2019-01-10T14:24:54.662Z,44.31
2019-01-10T14:27:21.625Z,36.76
2019-01-10T14:29:49.789Z,31.27
2019-01-10T14:32:17.513Z,28.59
2019-01-10T14:34:44.969Z,27.65
2019-01-10T14:37:12.369Z,26.92
2019-01-10T14:39:39.786Z,29.03
2019-01-10T14:42:07.274Z,34.16
2019-01-10T14:44:34.666Z,39.29
2019-01-10T14:47:07.489Z,43.40
2019-01-10T14:49:29.440Z,45.34
2019-01-10T14:51:56.373Z,47.54
2019-01-10T14:54:23.337Z,47.86
2019-01-10T14:56:50.297Z,48.67
2019-01-10T14:59:17.400Z,49.71
2019-01-10T15:01:44.479Z,50.04
2019-01-10T15:04:11.414Z,50.67
2019-01-10T15:09:11.835Z,51.76
2019-01-10T15:11:38.831Z,51.73
2019-01-10T15:14:05.810Z,52.28
2019-01-10T15:16:32.755Z,51.90
2019-01-10T15:18:59.714Z,52.56
2019-01-10T15:21:27.129Z,52.67
2019-01-10T15:23:54.583Z,53.27
2019-01-10T15:26:22.031Z,53.14
2019-01-10T15:28:49.454Z,53.57
2019-01-10T15:31:19.120Z,53.48
2019-01-10T15:33:47.396Z,53.98
2019-01-10T15:36:14.890Z,53.86
2019-01-10T15:38:42.310Z,54.41
2019-01-10T15:41:09.846Z,54.33
2019-01-10T15:43:37.258Z,54.35
2019-01-10T15:46:04.716Z,54.21
2019-01-10T15:48:32.319Z,54.43
2019-01-10T15:50:59.726Z,54.85
2019-01-10T15:53:28.060Z,54.82
2019-01-10T15:55:55.553Z,54.97
2019-01-10T15:58:23.588Z,55.15
2019-01-10T16:00:51.909Z,55.47
2019-01-10T16:03:20.232Z,55.68
2019-01-10T16:05:47.658Z,55.85
2019-01-10T16:08:15.098Z,55.89
2019-01-10T16:10:42.793Z,56.25
2019-01-10T16:13:10.397Z,56.72
2019-01-10T16:15:38.625Z,57.20
2019-01-10T16:18:06.075Z,57.88
2019-01-10T16:20:33.480Z,58.21
2019-01-10T16:23:00.915Z,58.28
2019-01-10T16:25:28.385Z,58.39
2019-01-10T16:27:55.770Z,58.70
2019-01-10T16:30:23.254Z,59.77
2019-01-10T16:32:51.055Z,60.02
2019-01-10T16:35:18.470Z,60.21
2019-01-10T16:37:45.986Z,60.03
2019-01-10T16:40:13.432Z,60.23
2019-01-10T16:42:40.836Z,61.07
2019-01-10T16:45:09.150Z,61.05
2019-01-10T16:47:36.617Z,61.09
2019-01-10T16:50:04.832Z,61.58
2019-01-10T16:52:32.237Z,61.59
2019-01-10T16:55:00.003Z,61.59
2019-01-10T16:57:27.418Z,60.80
2019-01-10T16:59:54.910Z,60.50
2019-01-10T17:02:22.405Z,60.41
2019-01-10T17:04:49.851Z,60.00
2019-01-10T17:07:17.292Z,59.95
2019-01-10T17:09:44.785Z,60.23
2019-01-10T17:12:12.178Z,60.54
2019-01-10T17:14:39.581Z,60.44
2019-01-10T17:17:07.004Z,60.68
2019-01-10T17:19:34.475Z,60.52
2019-01-10T17:22:01.896Z,60.38
2019-01-10T17:24:29.431Z,60.57
2019-01-10T17:26:56.898Z,60.64
2019-01-10T17:29:24.308Z,61.00
2019-01-10T17:31:51.926Z,61.37
2019-01-10T17:34:19.435Z,61.46
2019-01-10T17:36:46.921Z,61.71
2019-01-10T17:39:14.320Z,61.45
2019-01-10T17:41:41.715Z,61.55
2019-01-10T17:44:09.103Z,61.73
2019-01-10T17:46:36.663Z,61.70
2019-01-10T17:49:04.083Z,61.39
2019-01-10T17:51:31.580Z,61.30
2019-01-10T17:53:59.045Z,61.46
2019-01-10T17:56:26.457Z,61.96
2019-01-10T17:58:54.875Z,62.10
2019-01-10T18:01:22.328Z,62.09
2019-01-10T18:03:49.723Z,61.97
2019-01-10T18:06:17.167Z,62.04
2019-01-10T18:08:44.573Z,62.01
2019-01-10T18:11:12.183Z,61.83
2019-01-10T18:13:39.629Z,62.00
2019-01-10T18:16:07.044Z,62.24
2019-01-10T18:18:34.645Z,62.65
2019-01-10T18:21:02.099Z,62.56
2019-01-10T18:23:29.618Z,63.00
2019-01-10T18:25:57.580Z,62.94
2019-01-10T18:28:24.983Z,62.90
2019-01-10T18:30:52.388Z,63.15
2019-01-10T18:33:19.840Z,63.25
2019-01-10T18:35:47.328Z,63.36
2019-01-10T18:38:14.903Z,63.68
2019-01-10T18:40:42.323Z,63.48
2019-01-10T18:43:09.819Z,63.70
2019-01-10T18:45:37.176Z,63.70
2019-01-10T18:48:04.607Z,63.60
2019-01-10T18:50:32.118Z,63.84
2019-01-10T18:52:59.589Z,64.47
2019-01-10T18:55:26.995Z,64.77
2019-01-10T18:57:54.535Z,64.81
2019-01-10T19:00:23.184Z,64.84
2019-01-10T19:02:50.858Z,64.92
2019-01-10T19:05:18.363Z,64.83
2019-01-10T19:07:46.004Z,65.03
2019-01-10T19:10:16.224Z,65.10
2019-01-10T19:12:43.692Z,64.95
2019-01-10T19:15:11.125Z,65.15
2019-01-10T19:17:38.632Z,64.76
2019-01-10T19:22:59.174Z,64.86
2019-01-10T19:25:27.151Z,65.05
2019-01-10T19:27:54.626Z,65.14
2019-01-10T19:30:23.465Z,65.41
2019-01-10T19:32:50.918Z,65.69
2019-01-10T19:35:18.383Z,66.28
2019-01-10T19:37:45.838Z,66.44
2019-01-10T19:40:15.183Z,66.71
2019-01-10T19:42:42.598Z,66.84
2019-01-10T19:45:10.021Z,67.21
2019-01-10T19:47:37.414Z,67.18
2019-01-10T19:50:04.860Z,67.02
2019-01-10T19:52:32.269Z,67.13
2019-01-10T19:54:59.753Z,67.16
2019-01-10T19:57:27.191Z,67.15
2019-01-10T19:59:54.587Z,66.82
2019-01-10T20:02:22.133Z,66.57
2019-01-10T20:04:49.558Z,66.21
2019-01-10T20:07:16.967Z,65.93
2019-01-10T20:09:44.426Z,65.69
2019-01-10T20:12:11.962Z,65.58
2019-01-10T20:14:39.353Z,65.64
2019-01-10T20:17:06.832Z,65.64
2019-01-10T20:19:34.258Z,65.51
2019-01-10T20:22:01.871Z,65.53
2019-01-10T20:24:29.295Z,65.41
2019-01-10T20:26:56.745Z,65.03
2019-01-10T20:29:24.133Z,64.81
2019-01-10T20:31:51.547Z,64.90
2019-01-10T20:34:19.072Z,64.67
2019-01-10T20:36:46.453Z,64.77
2019-01-10T20:39:13.888Z,64.51
2019-01-10T20:41:41.296Z,64.30
2019-01-10T20:44:08.692Z,64.24
2019-01-10T20:46:36.190Z,64.59
2019-01-10T20:49:03.708Z,64.34
2019-01-10T20:51:31.105Z,64.55
2019-01-10T20:53:58.528Z,64.47
2019-01-10T20:56:25.981Z,64.35
2019-01-10T20:58:53.926Z,64.30
2019-01-10T21:01:20.831Z,64.33
2019-01-10T21:03:48.263Z,64.82
2019-01-10T21:06:15.701Z,64.70
2019-01-10T21:08:43.111Z,64.81
2019-01-10T21:11:10.551Z,65.27
2019-01-10T21:13:37.982Z,64.95
2019-01-10T21:16:05.396Z,64.94
2019-01-10T21:18:32.884Z,65.24
2019-01-10T21:21:00.291Z,65.03
2019-01-10T21:23:27.833Z,64.73
2019-01-10T21:25:55.569Z,64.28
2019-01-10T21:28:24.404Z,63.92
2019-01-10T21:30:50.503Z,63.73
2019-01-10T21:33:18.544Z,63.92
2019-01-10T21:35:45.932Z,64.14
2019-01-10T21:38:13.384Z,64.10
2019-01-10T21:40:40.821Z,64.14
2019-01-10T21:43:08.226Z,64.02
2019-01-10T21:45:35.632Z,64.09
2019-01-10T21:48:04.042Z,64.25
2019-01-10T21:50:31.595Z,64.17
2019-01-10T21:52:58.994Z,64.33
2019-01-10T21:55:26.446Z,64.47
2019-01-10T21:57:53.859Z,64.08
2019-01-10T22:00:24.665Z,64.10
2019-01-10T22:02:52.074Z,63.57
2019-01-10T22:05:19.541Z,62.75
2019-01-10T22:07:46.955Z,63.22
2019-01-10T22:10:14.354Z,63.39
2019-01-10T22:12:41.859Z,63.46
2019-01-10T22:15:09.212Z,63.43
2019-01-10T22:17:36.609Z,63.32
2019-01-10T22:20:04.014Z,63.72
2019-01-10T22:22:31.444Z,64.08
2019-01-10T22:24:58.837Z,63.60
2019-01-10T22:27:26.236Z,63.30
2019-01-10T22:29:53.698Z,63.02
2019-01-10T22:32:21.160Z,62.72
2019-01-10T22:34:48.651Z,63.17
2019-01-10T22:37:16.402Z,62.70
2019-01-10T22:39:43.544Z,62.71
2019-01-10T22:42:10.991Z,62.33
2019-01-10T22:44:39.295Z,62.27
2019-01-10T22:47:06.735Z,62.04
2019-01-10T22:49:34.145Z,62.05
2019-01-10T22:52:01.583Z,62.27
2019-01-10T22:54:28.975Z,62.19
2019-01-10T22:56:56.406Z,61.97
2019-01-10T22:59:23.861Z,62.07
2019-01-10T23:01:51.290Z,62.33
2019-01-10T23:04:18.710Z,62.40
2019-01-10T23:06:46.107Z,62.00
2019-01-10T23:09:13.494Z,61.63
2019-01-10T23:11:40.919Z,61.87
2019-01-10T23:14:08.399Z,61.89
2019-01-10T23:16:35.803Z,62.30
2019-01-10T23:19:03.214Z,61.92
2019-01-10T23:21:30.668Z,61.26
2019-01-10T23:23:58.170Z,61.29
2019-01-10T23:26:25.580Z,61.25
2019-01-10T23:28:52.987Z,61.27
2019-01-10T23:31:20.386Z,61.17
2019-01-10T23:33:47.831Z,60.65
2019-01-10T23:36:15.249Z,60.38
2019-01-10T23:38:42.695Z,60.89
2019-01-10T23:41:10.155Z,60.50
2019-01-10T23:43:37.534Z,60.39
2019-01-10T23:46:05.581Z,60.77
2019-01-10T23:48:33.028Z,60.95
2019-01-10T23:51:00.463Z,60.26
2019-01-10T23:53:28.706Z,60.45
2019-01-10T23:55:57.340Z,60.33
2019-01-10T23:58:24.735Z,60.52
